This is the latest recevied weather packets stored in our database for station/object AA7VG. If no packets are shown the sender has not sent any weather packets the latest 10 day(s).
| Time | Temp. | Humidity | Pressure | Rain* | Wind** | Luminosity | Snow |
|---|---|---|---|---|---|---|---|
| 1778073047 | -1.11° C | 67% | 1018.3 hPa | 0 mm | - | - | - |
| 1778072744 | -1.67° C | 70% | 1018.6 hPa | 0 mm | - | - | - |
| 1778072441 | -2.22° C | 72% | 1018.3 hPa | 0 mm | - | - | - |
| 1778072139 | -2.78° C | 74% | 1018.3 hPa | 0 mm | - | - | - |
| 1778071837 | -3.33° C | 74% | 1018.4 hPa | 0 mm | - | - | - |
| 1778071534 | -3.33° C | 75% | 1018.4 hPa | 0 mm | - | - | - |
| 1778071232 | -3.33° C | 77% | 1018.3 hPa | 0 mm | - | - | - |
| 1778070929 | -3.89° C | 77% | 1018.2 hPa | 0 mm | - | - | - |
| 1778070628 | -3.89° C | 77% | 1018 hPa | 0 mm | - | - | - |
| 1778070324 | -3.89° C | 77% | 1018.3 hPa | 0 mm | - | - | - |
| 1778070022 | -3.89° C | 78% | 1018 hPa | 0 mm | - | - | - |
| 1778069720 | -3.89° C | 79% | 1018.3 hPa | 0 mm | - | - | - |
| 1778069415 | -3.89° C | 78% | 1018 hPa | 0 mm | - | - | - |
| 1778069114 | -3.33° C | 77% | 1018.3 hPa | 0 mm | - | - | - |
| 1778068811 | -3.33° C | 76% | 1018.4 hPa | 0 mm | - | - | - |
| 1778068509 | -3.33° C | 76% | 1018.3 hPa | 0 mm | - | - | - |
| 1778068207 | -2.78° C | 74% | 1018.3 hPa | 0 mm | - | - | - |
| 1778067904 | -2.78° C | 74% | 1018 hPa | 0 mm | - | - | - |
| 1778067602 | -2.78° C | 74% | 1018.3 hPa | 0 mm | - | - | - |
| 1778067300 | -2.78° C | 74% | 1018.2 hPa | 0 mm | - | - | - |
| 1778066996 | -2.78° C | 74% | 1018 hPa | 0 mm | - | - | - |
| 1778066694 | -2.78° C | 74% | 1018.4 hPa | 0 mm | - | - | - |
| 1778066390 | -2.78° C | 73% | 1018.3 hPa | 0 mm | - | - | - |
| 1778066089 | -2.22° C | 73% | 1018.2 hPa | 0 mm | - | - | - |
| 1778065785 | -2.78° C | 74% | 1018.5 hPa | 0 mm | - | - | - |
* Rain latest hour (hover to see other rain measurements)
** Current wind speed in m/s (hover to see current wind gust speed)